Time;durP1;ratioP1;P1;durP2;ratioP2;P2;SDS_P1;SDS_P2;PMS_P1;PMS_P2;Temp;Humidity;BMP_temperature;BMP_pressure;BME280_temperature;BME280_humidity;BME280_pressure;Samples;Min_cycle;Max_cycle;Signal;HPM_P1;HPM_P2
2022/10/15 00:01:18;;;;;;;0.70;0.70;;;;;;;9.66;100.00;100705.66;5002079;28;20022;-75
2022/10/15 00:03:44;;;;;;;0.70;0.70;;;;;;;9.55;100.00;100703.78;4998990;28;20045;-75
2022/10/15 00:06:12;;;;;;;0.90;0.90;;;;;;;9.44;100.00;100707.25;5000769;28;20073;-75
2022/10/15 00:08:38;;;;;;;0.60;0.60;;;;;;;9.40;100.00;100708.50;5005250;28;20484;-75
2022/10/15 00:11:09;;;;;;;0.00;0.00;;;;;;;9.26;100.00;100685.41;5003923;28;20307;-76
2022/10/15 00:13:35;;;;;;;0.10;0.10;;;;;;;9.47;100.00;100711.56;5015556;28;20057;-75
2022/10/15 00:16:01;;;;;;;0.05;0.05;;;;;;;9.35;100.00;100689.22;5006318;28;20037;-75
2022/10/15 00:18:26;;;;;;;0.47;0.47;;;;;;;9.44;100.00;100688.50;5019064;28;20021;-75
2022/10/15 00:20:52;;;;;;;0.03;0.03;;;;;;;9.49;100.00;100685.50;4997358;28;20155;-75
2022/10/15 00:23:17;;;;;;;0.10;0.10;;;;;;;9.57;100.00;100708.06;5001427;28;20026;-75
2022/10/15 00:25:42;;;;;;;1.10;1.05;;;;;;;9.53;100.00;100709.25;5002943;28;20061;-75
2022/10/15 00:28:07;;;;;;;0.10;0.10;;;;;;;9.29;100.00;100687.84;5019522;28;20447;-76
2022/10/15 00:30:33;;;;;;;0.40;0.40;;;;;;;9.24;100.00;100695.38;5000811;28;20029;-76
2022/10/15 00:32:58;;;;;;;0.80;0.80;;;;;;;9.20;100.00;100707.28;5003065;28;20114;-75
2022/10/15 00:35:23;;;;;;;0.50;0.50;;;;;;;8.84;100.00;100686.63;5000673;28;20037;-76
2022/10/15 00:37:49;;;;;;;0.28;0.28;;;;;;;8.93;100.00;100709.19;5019394;28;20431;-76
2022/10/15 00:40:14;;;;;;;0.40;0.40;;;;;;;8.91;100.00;100699.59;5007314;28;20065;-75
2022/10/15 00:42:39;;;;;;;0.30;0.30;;;;;;;8.84;100.00;100688.47;4990142;28;20112;-75
2022/10/15 00:45:07;;;;;;;0.55;0.55;;;;;;;8.97;100.00;100704.50;5012805;28;20033;-75
2022/10/15 00:47:47;;;;;;;0.40;0.40;;;;;;;8.98;100.00;100709.72;5004929;28;20029;-76
2022/10/15 00:50:15;;;;;;;0.50;0.50;;;;;;;8.89;100.00;100685.44;5028204;28;20054;-76
2022/10/15 00:53:00;;;;;;;0.50;0.50;;;;;;;9.06;100.00;100711.00;5009649;28;20022;-75
2022/10/15 00:55:31;;;;;;;0.40;0.40;;;;;;;8.84;100.00;100699.19;5004136;28;20068;-76
2022/10/15 00:58:04;;;;;;;0.38;0.38;;;;;;;9.06;100.00;100711.81;5010747;28;20040;-76
2022/10/15 01:00:29;;;;;;;0.30;0.30;;;;;;;9.06;100.00;100690.41;5008649;28;20025;-75
2022/10/15 01:02:54;;;;;;;0.10;0.10;;;;;;;9.23;100.00;100694.50;5003937;28;20034;-75
2022/10/15 01:05:20;;;;;;;0.10;0.10;;;;;;;9.41;100.00;100703.00;5005136;28;20042;-75
2022/10/15 01:07:46;;;;;;;0.30;0.30;;;;;;;9.30;100.00;100657.41;5022086;28;20037;-76
2022/10/15 01:10:12;;;;;;;0.20;0.20;;;;;;;9.60;100.00;100690.88;5003374;28;20034;-75
2022/10/15 01:12:47;;;;;;;0.20;0.20;;;;;;;9.85;100.00;100700.59;5004890;28;20029;-75
2022/10/15 01:15:30;;;;;;;0.20;0.20;;;;;;;10.01;100.00;100702.06;5003491;28;20061;-75
2022/10/15 01:18:21;;;;;;;0.30;0.30;;;;;;;9.97;100.00;100668.41;5012254;28;20029;-75
2022/10/15 01:20:49;;;;;;;0.30;0.30;;;;;;;10.12;100.00;100687.81;5007775;28;20041;-75
2022/10/15 01:23:52;;;;;;;0.20;0.20;;;;;;;10.12;100.00;100682.44;5011673;28;20030;-75
2022/10/15 01:26:23;;;;;;;0.15;0.15;;;;;;;10.16;100.00;100674.06;5025127;28;20036;-76
2022/10/15 01:29:20;;;;;;;0.20;0.20;;;;;;;10.19;100.00;100673.81;5012088;28;20026;-75
2022/10/15 01:31:51;;;;;;;0.20;0.20;;;;;;;10.19;100.00;100672.97;5016956;28;20033;-76
2022/10/15 01:34:31;;;;;;;0.20;0.20;;;;;;;10.23;100.00;100665.50;5008002;28;20530;-75
2022/10/15 01:37:16;;;;;;;0.30;0.30;;;;;;;10.38;100.00;100669.66;5016959;28;20034;-75
2022/10/15 01:39:51;;;;;;;0.35;0.35;;;;;;;10.41;100.00;100647.13;4996845;28;20057;-75
2022/10/15 01:42:27;;;;;;;0.30;0.30;;;;;;;10.55;100.00;100665.66;5008015;28;20574;-76
2022/10/15 01:44:59;;;;;;;0.40;0.40;;;;;;;10.63;100.00;100665.88;5006353;28;20427;-75
2022/10/15 01:47:38;;;;;;;0.30;0.30;;;;;;;10.56;100.00;100664.69;5013435;28;20030;-74
2022/10/15 01:50:05;;;;;;;0.38;0.38;;;;;;;10.57;100.00;100661.03;5011088;28;20515;-75
2022/10/15 01:52:33;;;;;;;0.40;0.40;;;;;;;10.75;100.00;100672.09;5018882;28;20056;-74
2022/10/15 01:55:00;;;;;;;0.40;0.40;;;;;;;10.75;100.00;100644.41;5007559;28;20032;-74
2022/10/15 01:57:27;;;;;;;0.40;0.40;;;;;;;10.98;100.00;100658.63;4991695;28;20033;-74
2022/10/15 01:59:53;;;;;;;0.30;0.30;;;;;;;10.93;100.00;100655.47;5011245;28;20419;-74
2022/10/15 02:02:19;;;;;;;0.38;0.38;;;;;;;11.10;100.00;100660.28;5014436;28;20480;-75
2022/10/15 02:04:44;;;;;;;0.40;0.40;;;;;;;11.08;100.00;100654.19;5014222;28;20057;-74
2022/10/15 02:07:22;;;;;;;0.30;0.30;;;;;;;11.18;100.00;100666.88;5016640;28;20017;-76
2022/10/15 02:10:00;;;;;;;0.30;0.30;;;;;;;11.20;100.00;100652.31;5014291;28;20032;-74
2022/10/15 02:12:41;;;;;;;0.30;0.30;;;;;;;11.17;100.00;100651.72;4994574;28;20504;-73
2022/10/15 02:15:47;;;;;;;0.30;0.30;;;;;;;11.30;100.00;100651.53;5022919;28;20844;-74
2022/10/15 02:18:20;;;;;;;0.20;0.20;;;;;;;11.28;100.00;100643.59;4952793;28;20035;-73
2022/10/15 02:21:11;;;;;;;0.30;0.30;;;;;;;11.33;100.00;100649.44;5025280;28;20045;-74
2022/10/15 02:23:57;;;;;;;0.25;0.25;;;;;;;11.30;100.00;100633.56;5012709;28;20021;-75
2022/10/15 02:26:25;;;;;;;0.20;0.20;;;;;;;11.32;100.00;100631.59;5001567;28;20034;-74
2022/10/15 02:28:53;;;;;;;0.25;0.25;;;;;;;11.31;100.00;100621.84;5007167;28;20033;-76
2022/10/15 02:31:20;;;;;;;0.20;0.20;;;;;;;11.27;100.00;100611.50;5015273;28;20164;-73
2022/10/15 02:33:47;;;;;;;0.20;0.20;;;;;;;11.40;100.00;100629.13;5004005;28;20522;-74
2022/10/15 02:36:15;;;;;;;0.25;0.25;;;;;;;11.43;100.00;100628.00;5010179;28;20038;-73
2022/10/15 02:38:42;;;;;;;0.17;0.17;;;;;;;11.43;100.00;100632.53;5006757;28;20037;-74
2022/10/15 02:41:08;;;;;;;0.20;0.20;;;;;;;11.58;100.00;100631.22;5011092;28;20033;-76
2022/10/15 02:43:35;;;;;;;0.20;0.20;;;;;;;11.27;100.00;100600.72;4987551;28;20467;-73
2022/10/15 02:46:00;;;;;;;0.20;0.20;;;;;;;11.36;100.00;100608.03;5008412;28;22352;-76
2022/10/15 02:48:25;;;;;;;0.20;0.20;;;;;;;11.50;100.00;100618.44;5006017;28;20034;-75
2022/10/15 02:50:51;;;;;;;0.20;0.20;;;;;;;11.51;100.00;100613.94;5024657;28;20034;-74
2022/10/15 02:53:16;;;;;;;0.20;0.20;;;;;;;11.54;100.00;100613.66;5012339;28;20554;-74
2022/10/15 02:55:41;;;;;;;0.20;0.20;;;;;;;11.23;100.00;100587.56;4989113;28;20030;-74
2022/10/15 02:58:06;;;;;;;0.20;0.20;;;;;;;11.36;100.00;100606.19;5010561;28;20315;-74
2022/10/15 03:00:32;;;;;;;0.10;0.10;;;;;;;11.34;100.00;100608.13;5005289;28;20041;-74
2022/10/15 03:02:57;;;;;;;0.20;0.20;;;;;;;11.14;100.00;100574.88;5005625;28;20069;-74
2022/10/15 03:05:22;;;;;;;0.10;0.10;;;;;;;11.29;100.00;100596.91;5006841;28;20040;-74
2022/10/15 03:07:48;;;;;;;0.17;0.17;;;;;;;11.24;100.00;100589.25;5010731;28;20444;-75
2022/10/15 03:10:13;;;;;;;0.10;0.10;;;;;;;11.14;100.00;100582.94;5011829;28;20069;-74
2022/10/15 03:12:39;;;;;;;0.10;0.10;;;;;;;11.21;100.00;100583.31;5011164;28;20022;-75
2022/10/15 03:15:05;;;;;;;0.20;0.20;;;;;;;11.07;100.00;100584.47;4999410;28;20471;-74
2022/10/15 03:17:30;;;;;;;0.20;0.20;;;;;;;11.08;100.00;100584.31;5003555;28;20083;-75
2022/10/15 03:19:55;;;;;;;0.10;0.10;;;;;;;11.07;100.00;100574.56;5006957;28;20026;-74
2022/10/15 03:22:21;;;;;;;0.20;0.20;;;;;;;10.81;100.00;100552.59;5007964;28;20049;-75
2022/10/15 03:24:46;;;;;;;0.20;0.20;;;;;;;10.89;100.00;100582.31;5006479;28;20036;-75
2022/10/15 03:27:11;;;;;;;0.15;0.15;;;;;;;10.68;100.00;100546.53;5003575;28;20047;-74
2022/10/15 03:29:36;;;;;;;0.20;0.20;;;;;;;10.76;100.00;100566.38;5001713;28;20577;-75
2022/10/15 03:32:05;;;;;;;0.30;0.30;;;;;;;10.78;100.00;100577.84;5021793;28;20033;-74
2022/10/15 03:34:30;;;;;;;0.20;0.20;;;;;;;10.81;100.00;100576.75;5001800;28;20115;-74
2022/10/15 03:36:55;;;;;;;0.17;0.17;;;;;;;10.75;100.00;100578.09;5002190;28;20076;-74
2022/10/15 03:39:21;;;;;;;0.10;0.10;;;;;;;10.74;100.00;100570.19;5021268;28;20112;-73
2022/10/15 03:41:46;;;;;;;0.30;0.30;;;;;;;10.72;100.00;100558.72;5004250;28;20045;-74
2022/10/15 03:44:11;;;;;;;0.20;0.20;;;;;;;10.89;100.00;100570.75;5002110;28;20064;-73
2022/10/15 03:46:37;;;;;;;0.20;0.20;;;;;;;11.10;100.00;100573.47;5007445;28;20065;-75
2022/10/15 03:49:02;;;;;;;0.20;0.20;;;;;;;11.05;100.00;100579.22;5001691;28;20072;-74
2022/10/15 03:51:27;;;;;;;0.20;0.20;;;;;;;10.82;100.00;100572.22;5014675;28;20029;-73
2022/10/15 03:53:53;;;;;;;0.10;0.10;;;;;;;11.00;100.00;100577.91;5001814;28;20028;-73
2022/10/15 03:56:18;;;;;;;0.20;0.20;;;;;;;10.73;100.00;100560.44;5005430;28;20040;-73
2022/10/15 03:58:44;;;;;;;0.20;0.20;;;;;;;10.95;100.00;100580.97;4994086;28;20048;-72
2022/10/15 04:01:11;;;;;;;0.20;0.20;;;;;;;10.81;100.00;100576.75;5005095;28;20117;-73
2022/10/15 04:03:36;;;;;;;0.10;0.10;;;;;;;10.80;100.00;100573.19;5017577;28;20028;-72
2022/10/15 04:06:02;;;;;;;0.20;0.20;;;;;;;10.84;100.00;100551.47;5010445;28;20038;-72
2022/10/15 04:08:27;;;;;;;0.10;0.10;;;;;;;10.80;100.00;100558.94;5009191;28;20529;-74
2022/10/15 04:10:53;;;;;;;0.10;0.10;;;;;;;10.69;100.00;100562.53;5022538;28;20033;-75
2022/10/15 04:13:18;;;;;;;0.20;0.20;;;;;;;10.70;100.00;100549.94;5001904;28;20026;-74
2022/10/15 04:15:43;;;;;;;0.20;0.20;;;;;;;10.73;100.00;100572.00;4998065;28;20124;-76
2022/10/15 04:18:09;;;;;;;0.10;0.10;;;;;;;10.68;100.00;100579.59;5001994;28;20041;-73
2022/10/15 04:20:34;;;;;;;0.20;0.20;;;;;;;10.59;100.00;100561.56;5004304;28;20463;-73
2022/10/15 04:22:59;;;;;;;0.20;0.20;;;;;;;10.55;100.00;100546.69;5001556;28;20026;-74
2022/10/15 04:25:25;;;;;;;0.20;0.20;;;;;;;10.74;100.00;100579.06;5005487;28;20030;-73
2022/10/15 04:27:52;;;;;;;0.20;0.20;;;;;;;10.78;100.00;100585.06;5010395;28;20048;-74
2022/10/15 04:30:17;;;;;;;0.25;0.25;;;;;;;10.66;100.00;100573.50;5003358;28;20029;-74
2022/10/15 04:32:42;;;;;;;0.20;0.20;;;;;;;10.60;100.00;100563.28;5003354;28;20037;-77
2022/10/15 04:35:08;;;;;;;0.20;0.20;;;;;;;10.61;100.00;100567.66;5003771;28;20038;-73
2022/10/15 04:37:33;;;;;;;0.30;0.30;;;;;;;10.90;100.00;100591.25;5004906;28;20528;-76
2022/10/15 04:39:58;;;;;;;0.22;0.22;;;;;;;10.81;100.00;100587.50;5001199;28;20028;-73
2022/10/15 04:42:24;;;;;;;0.20;0.20;;;;;;;10.94;100.00;100587.34;5005257;28;20567;-72
2022/10/15 04:44:49;;;;;;;0.30;0.30;;;;;;;11.04;100.00;100590.09;4998600;28;20048;-76
2022/10/15 04:47:14;;;;;;;0.30;0.30;;;;;;;11.08;100.00;100578.13;5003827;28;20064;-72
2022/10/15 04:49:39;;;;;;;0.20;0.20;;;;;;;11.02;100.00;100568.72;5019394;28;20034;-73
2022/10/15 04:52:05;;;;;;;0.20;0.20;;;;;;;10.98;100.00;100574.50;5005854;28;20612;-73
2022/10/15 04:54:30;;;;;;;0.32;0.20;;;;;;;11.02;100.00;100568.72;5005223;28;20076;-73
2022/10/15 04:56:55;;;;;;;0.32;0.32;;;;;;;11.15;100.00;100579.28;5019977;28;20071;-73
2022/10/15 04:59:21;;;;;;;0.30;0.30;;;;;;;11.09;100.00;100579.81;5012824;28;20038;-72
2022/10/15 05:01:46;;;;;;;0.30;0.30;;;;;;;11.28;100.00;100576.41;5013574;28;20072;-74
2022/10/15 05:04:13;;;;;;;0.30;0.30;;;;;;;11.12;100.00;100565.25;5002078;28;20455;-73
2022/10/15 05:06:38;;;;;;;0.30;0.30;;;;;;;11.15;100.00;100573.06;5002804;28;20456;-74
2022/10/15 05:09:03;;;;;;;0.50;0.50;;;;;;;11.31;100.00;100575.31;5002786;28;20149;-73
2022/10/15 05:11:29;;;;;;;0.40;0.40;;;;;;;11.39;100.00;100573.66;5006049;28;20252;-73
2022/10/15 05:13:56;;;;;;;0.30;0.30;;;;;;;11.38;100.00;100580.03;5001538;28;20124;-72
2022/10/15 05:16:26;;;;;;;0.40;0.40;;;;;;;11.51;100.00;100584.38;5007723;28;20038;-72
2022/10/15 05:18:55;;;;;;;0.50;0.50;;;;;;;11.63;100.00;100579.75;5002669;28;20034;-72
2022/10/15 05:21:20;;;;;;;0.50;0.50;;;;;;;11.73;100.00;100579.81;4987122;28;20443;-72
2022/10/15 05:23:46;;;;;;;0.57;0.57;;;;;;;11.79;100.00;100587.31;5003474;28;20022;-72
2022/10/15 05:26:19;;;;;;;0.50;0.50;;;;;;;11.85;100.00;100578.72;4998347;28;20034;-72
2022/10/15 05:28:44;;;;;;;0.50;0.50;;;;;;;11.93;100.00;100588.81;5003013;28;20042;-73
2022/10/15 05:31:15;;;;;;;0.60;0.60;;;;;;;11.90;100.00;100581.88;5003934;28;20033;-72
2022/10/15 05:33:41;;;;;;;0.50;0.50;;;;;;;11.97;100.00;100571.41;5000191;28;20025;-73
2022/10/15 05:36:11;;;;;;;0.40;0.40;;;;;;;11.92;100.00;100584.44;5001692;28;20431;-73
2022/10/15 05:38:37;;;;;;;0.40;0.40;;;;;;;11.73;100.00;100556.44;4991569;28;20360;-76
2022/10/15 05:41:02;;;;;;;0.40;0.40;;;;;;;12.02;100.00;100596.13;4998218;28;20040;-72
2022/10/15 05:43:28;;;;;;;0.50;0.50;;;;;;;12.17;100.00;100593.06;4998349;28;20049;-73
2022/10/15 05:45:54;;;;;;;0.47;0.47;;;;;;;12.12;100.00;100591.63;5000990;28;20036;-74
2022/10/15 05:48:19;;;;;;;0.32;0.32;;;;;;;12.07;100.00;100584.94;5004715;28;20100;-72
2022/10/15 05:50:44;;;;;;;0.32;0.32;;;;;;;12.08;100.00;100592.88;4998387;28;20408;-72
2022/10/15 05:53:09;;;;;;;0.40;0.40;;;;;;;12.17;100.00;100595.75;5005237;28;20192;-71
2022/10/15 05:55:35;;;;;;;0.30;0.30;;;;;;;12.05;100.00;100587.78;5000120;28;20030;-71
2022/10/15 05:58:02;;;;;;;0.40;0.40;;;;;;;12.06;100.00;100602.94;4998729;28;20037;-71
2022/10/15 06:00:27;;;;;;;0.40;0.40;;;;;;;12.03;100.00;100595.13;5000233;28;20030;-72
2022/10/15 06:02:52;;;;;;;0.40;0.40;;;;;;;12.06;100.00;100597.56;5001150;28;20125;-72
2022/10/15 06:05:18;;;;;;;0.40;0.40;;;;;;;12.15;100.00;100599.44;4997107;28;20404;-73
2022/10/15 06:07:43;;;;;;;0.30;0.30;;;;;;;12.26;100.00;100592.22;5007278;28;20030;-74
2022/10/15 06:10:08;;;;;;;0.40;0.40;;;;;;;12.00;100.00;100555.91;5014621;28;20045;-72
2022/10/15 06:12:34;;;;;;;0.30;0.30;;;;;;;12.27;100.00;100591.25;5006186;28;20038;-72
2022/10/15 06:14:59;;;;;;;0.30;0.30;;;;;;;12.17;100.00;100579.63;5003619;28;20038;-73
2022/10/15 06:17:24;;;;;;;0.30;0.30;;;;;;;12.28;100.00;100577.66;5003113;28;20331;-72
2022/10/15 06:19:50;;;;;;;0.22;0.22;;;;;;;12.43;100.00;100580.81;4999708;28;20032;-74
2022/10/15 06:22:15;;;;;;;0.30;0.30;;;;;;;12.18;100.00;100566.00;5002406;28;20037;-72
2022/10/15 06:24:40;;;;;;;0.35;0.35;;;;;;;12.32;100.00;100575.53;4997110;28;20077;-72
2022/10/15 06:27:05;;;;;;;0.30;0.30;;;;;;;12.31;100.00;100568.44;5001946;28;20488;-72
2022/10/15 06:29:31;;;;;;;0.30;0.30;;;;;;;12.25;100.00;100561.78;4987565;28;20045;-72
2022/10/15 06:31:56;;;;;;;0.40;0.40;;;;;;;12.36;100.00;100573.41;5004888;28;20366;-73
2022/10/15 06:34:21;;;;;;;0.30;0.30;;;;;;;12.20;100.00;100580.19;4998751;28;20112;-72
2022/10/15 06:36:47;;;;;;;0.30;0.30;;;;;;;12.26;100.00;100590.41;5000453;28;20038;-72
2022/10/15 06:39:12;;;;;;;0.30;0.30;;;;;;;12.23;100.00;100579.91;5002979;28;20046;-75
2022/10/15 06:41:37;;;;;;;0.40;0.40;;;;;;;12.28;100.00;100591.13;5006629;28;20133;-73
2022/10/15 06:44:03;;;;;;;0.30;0.30;;;;;;;12.37;100.00;100597.53;5005012;28;20025;-73
2022/10/15 06:46:28;;;;;;;0.30;0.30;;;;;;;12.09;100.00;100575.75;5003350;28;20116;-73
2022/10/15 06:48:54;;;;;;;0.30;0.30;;;;;;;12.42;100.00;100591.72;5001719;28;20629;-72
2022/10/15 06:51:20;;;;;;;0.25;0.25;;;;;;;12.14;100.00;100588.78;5007610;28;20029;-80
2022/10/15 06:53:45;;;;;;;0.20;0.20;;;;;;;12.28;100.00;100591.13;5004705;28;20037;-72
2022/10/15 06:56:10;;;;;;;0.15;0.15;;;;;;;12.45;100.00;100591.44;5006220;28;20129;-73
2022/10/15 06:58:36;;;;;;;0.20;0.20;;;;;;;12.38;100.00;100601.91;5008231;28;20034;-72
2022/10/15 07:01:03;;;;;;;0.40;0.40;;;;;;;12.29;100.00;100587.44;5003509;28;20091;-72
2022/10/15 07:03:28;;;;;;;0.30;0.30;;;;;;;12.42;100.00;100591.72;5003138;28;20030;-71
2022/10/15 07:05:54;;;;;;;0.30;0.30;;;;;;;12.41;100.00;100593.56;5000619;28;20314;-73
2022/10/15 07:08:19;;;;;;;0.30;0.30;;;;;;;12.57;100.00;100609.19;5004054;28;20061;-74
2022/10/15 07:10:45;;;;;;;0.20;0.20;;;;;;;12.56;100.00;100598.56;5024810;28;20074;-72
2022/10/15 07:13:10;;;;;;;0.20;0.20;;;;;;;12.47;100.00;100575.13;5003381;28;20022;-71
2022/10/15 07:15:35;;;;;;;0.20;0.20;;;;;;;12.52;100.00;100600.69;5000022;28;20034;-71
2022/10/15 07:18:01;;;;;;;0.17;0.17;;;;;;;12.52;100.00;100592.59;5003519;28;20484;-72
2022/10/15 07:20:28;;;;;;;0.20;0.20;;;;;;;12.44;100.00;100566.38;4999422;28;20034;-72
2022/10/15 07:22:57;;;;;;;0.10;0.10;;;;;;;12.64;100.00;100604.09;5002709;28;20022;-72
2022/10/15 07:25:23;;;;;;;0.20;0.20;;;;;;;12.48;100.00;100587.59;4998697;28;20029;-72
2022/10/15 07:27:48;;;;;;;0.20;0.20;;;;;;;12.39;100.00;100579.41;4996852;28;20587;-73
2022/10/15 07:30:14;;;;;;;0.20;0.20;;;;;;;12.70;100.00;100611.63;5017178;28;20041;-72
2022/10/15 07:32:39;;;;;;;0.20;0.20;;;;;;;12.72;100.00;100592.63;5019811;28;20036;-72
2022/10/15 07:35:05;;;;;;;0.17;0.17;;;;;;;12.64;100.00;100568.22;5005352;28;20030;-72
2022/10/15 07:37:30;;;;;;;0.20;0.20;;;;;;;12.78;100.00;100569.66;5004253;28;20029;-72
2022/10/15 07:39:56;;;;;;;0.10;0.10;;;;;;;12.73;100.00;100568.22;4996078;28;20037;-74
2022/10/15 07:42:21;;;;;;;0.10;0.10;;;;;;;12.73;100.00;100573.63;4995553;28;20036;-74
2022/10/15 07:44:46;;;;;;;0.10;0.10;;;;;;;12.78;100.00;100567.84;4999369;28;20042;-71
2022/10/15 07:47:11;;;;;;;0.13;0.13;;;;;;;12.97;100.00;100593.94;5014280;28;20496;-72
2022/10/15 07:49:37;;;;;;;0.20;0.20;;;;;;;13.09;100.00;100588.38;5000910;28;20029;-73
2022/10/15 07:52:02;;;;;;;0.10;0.10;;;;;;;13.17;100.00;100593.94;4998292;28;20040;-74
2022/10/15 07:54:27;;;;;;;0.20;0.20;;;;;;;13.32;100.00;100572.78;5001277;28;20066;-73
2022/10/15 07:56:53;;;;;;;0.10;0.10;;;;;;;13.25;100.00;100561.69;4997686;28;20121;-74
2022/10/15 07:59:18;;;;;;;0.10;0.10;;;;;;;13.25;100.00;100567.09;4995684;28;20060;-72
2022/10/15 08:01:43;;;;;;;0.10;0.10;;;;;;;13.22;100.00;100574.63;5001478;28;20353;-73
2022/10/15 08:04:08;;;;;;;0.10;0.10;;;;;;;13.13;100.00;100571.78;4999113;28;20096;-73
2022/10/15 08:06:34;;;;;;;0.10;0.10;;;;;;;13.14;100.00;100559.16;5017578;28;20025;-73
2022/10/15 08:08:59;;;;;;;0.10;0.10;;;;;;;13.33;100.00;100571.78;5016346;28;20034;-74
2022/10/15 08:11:25;;;;;;;0.10;0.10;;;;;;;13.28;100.00;100557.88;5001186;28;20034;-73
2022/10/15 08:13:51;;;;;;;0.10;0.10;;;;;;;13.50;100.00;100573.75;5018194;28;20448;-73
2022/10/15 08:16:18;;;;;;;0.10;0.10;;;;;;;13.63;100.00;100575.31;4994609;28;20113;-72
2022/10/15 08:18:44;;;;;;;0.10;0.10;;;;;;;13.87;100.00;100572.09;4999591;28;20038;-74
2022/10/15 08:21:10;;;;;;;0.10;0.10;;;;;;;13.85;100.00;100578.66;4996482;28;20056;-73
2022/10/15 08:23:35;;;;;;;0.10;0.10;;;;;;;13.86;100.00;100573.09;5000638;28;20168;-77
2022/10/15 08:26:01;;;;;;;0.10;0.10;;;;;;;13.81;100.00;100561.88;4998247;28;20027;-73
2022/10/15 08:28:27;;;;;;;0.10;0.10;;;;;;;13.63;100.00;100545.63;5007107;28;20033;-76
2022/10/15 08:30:52;;;;;;;0.10;0.10;;;;;;;13.71;100.00;100544.91;5009932;28;20483;-75
2022/10/15 08:33:17;;;;;;;0.10;0.10;;;;;;;13.56;100.00;100560.69;5005276;28;20496;-72
2022/10/15 08:35:43;;;;;;;0.10;0.10;;;;;;;13.63;100.00;100559.13;4997562;28;20034;-72
2022/10/15 08:38:10;;;;;;;0.10;0.10;;;;;;;13.65;100.00;100536.38;4995232;28;20042;-72
2022/10/15 08:40:35;;;;;;;0.10;0.10;;;;;;;13.95;100.00;100537.13;4981890;28;20121;-74
2022/10/15 08:43:01;;;;;;;0.10;0.10;;;;;;;14.20;100.00;100559.03;5000639;28;20022;-74
2022/10/15 08:45:33;;;;;;;0.10;0.10;;;;;;;14.42;100.00;100523.66;4998756;28;20133;-75
2022/10/15 08:48:10;;;;;;;0.10;0.10;;;;;;;14.62;100.00;100530.63;4991231;28;20041;-75
2022/10/15 08:50:41;;;;;;;0.10;0.10;;;;;;;14.87;100.00;100546.22;4996875;28;20068;-73
2022/10/15 08:53:12;;;;;;;0.00;0.00;;;;;;;14.36;100.00;100523.25;4996985;28;20021;-71
2022/10/15 08:55:39;;;;;;;0.10;0.10;;;;;;;14.31;100.00;100530.09;4997576;28;20120;-72
2022/10/15 08:58:24;;;;;;;0.10;0.10;;;;;;;14.42;100.00;100551.50;4997417;28;20391;-78
2022/10/15 09:00:51;;;;;;;0.00;0.00;;;;;;;14.55;100.00;100543.91;4997117;28;20040;-75
2022/10/15 09:03:43;;;;;;;0.10;0.10;;;;;;;14.69;100.00;100541.69;5008515;28;20507;-72
2022/10/15 09:06:13;;;;;;;0.10;0.10;;;;;;;14.76;100.00;100540.06;5009009;28;20052;-73
2022/10/15 09:09:09;;;;;;;0.00;0.00;;;;;;;14.29;100.00;100518.63;4994897;28;20044;-77
2022/10/15 09:11:46;;;;;;;0.10;0.10;;;;;;;14.57;100.00;100522.13;5017117;28;20036;-74
2022/10/15 09:14:22;;;;;;;0.08;0.08;;;;;;;14.33;100.00;100498.38;4998620;28;20061;-75
2022/10/15 09:16:49;;;;;;;0.00;0.00;;;;;;;14.44;100.00;100527.91;5014288;28;20075;-71
2022/10/15 09:19:17;;;;;;;0.00;0.00;;;;;;;14.36;100.00;100511.59;5011490;28;20417;-72
2022/10/15 09:21:45;;;;;;;0.00;0.00;;;;;;;14.35;100.00;100512.59;4995631;28;20037;-75
2022/10/15 09:24:20;;;;;;;0.10;0.10;;;;;;;14.54;100.00;100511.63;4996528;28;20535;-73
2022/10/15 09:27:26;;;;;;;0.00;0.00;;;;;;;14.57;100.00;100513.19;4995247;28;20038;-71
2022/10/15 09:30:22;;;;;;;0.10;0.10;;;;;;;14.73;100.00;100517.88;4978511;28;20052;-75
2022/10/15 09:32:54;;;;;;;0.00;0.00;;;;;;;14.47;100.00;100497.88;4997390;28;20116;-73
2022/10/15 09:35:33;;;;;;;0.10;0.10;;;;;;;14.39;100.00;100492.38;4998222;28;20030;-74
2022/10/15 09:38:31;;;;;;;0.00;0.00;;;;;;;14.77;100.00;100511.19;4999077;28;20515;-73
2022/10/15 09:41:06;;;;;;;0.10;0.10;;;;;;;14.81;100.00;100499.06;5013280;28;20335;-73
2022/10/15 09:43:35;;;;;;;0.00;0.00;;;;;;;14.66;100.00;100501.44;5000913;28;20030;-71
2022/10/15 09:46:02;;;;;;;0.00;0.00;;;;;;;14.81;100.00;100493.66;4999776;28;20061;-72
2022/10/15 09:48:30;;;;;;;0.00;0.00;;;;;;;14.55;100.00;100453.88;5002235;28;20072;-73
2022/10/15 09:50:59;;;;;;;0.10;0.10;;;;;;;14.72;100.00;100486.47;5015677;28;20382;-72
2022/10/15 09:53:40;;;;;;;0.00;0.00;;;;;;;14.43;100.00;100499.19;5001878;28;20030;-70
2022/10/15 09:56:19;;;;;;;0.00;0.00;;;;;;;14.40;100.00;100492.25;5003108;28;20034;-72
2022/10/15 09:58:53;;;;;;;0.10;0.10;;;;;;;14.19;100.00;100481.72;4998683;28;20030;-72
2022/10/15 10:01:27;;;;;;;0.05;0.05;;;;;;;14.27;100.00;100480.13;4998653;28;20463;-75
2022/10/15 10:04:07;;;;;;;0.10;0.10;;;;;;;14.34;100.00;100479.34;5002277;28;20132;-73
2022/10/15 10:06:42;;;;;;;0.00;0.00;;;;;;;14.23;100.00;100480.41;5002759;28;20379;-76
2022/10/15 10:09:15;;;;;;;0.00;0.00;;;;;;;13.98;100.00;100454.16;5001770;28;22114;-72
2022/10/15 10:11:53;;;;;;;0.00;0.00;;;;;;;14.17;100.00;100458.59;5012823;28;20030;-78
2022/10/15 10:14:25;;;;;;;0.03;0.03;;;;;;;14.22;100.00;100476.03;5003021;28;20622;-74
2022/10/15 10:17:29;;;;;;;0.10;0.10;;;;;;;14.30;100.00;100480.66;5015392;28;20025;-74
2022/10/15 10:20:13;;;;;;;0.10;0.10;;;;;;;14.24;100.00;100478.56;4924557;29;20151;-73
2022/10/15 10:22:59;;;;;;;0.00;0.00;;;;;;;14.29;100.00;100484.34;4991388;28;20325;-72
2022/10/15 10:25:24;;;;;;;0.00;0.00;;;;;;;14.32;100.00;100473.25;4995604;28;20029;-73
2022/10/15 10:27:50;;;;;;;0.00;0.00;;;;;;;14.44;100.00;100473.88;4997632;28;20570;-72
2022/10/15 10:30:15;;;;;;;0.10;0.10;;;;;;;14.47;100.00;100472.72;4997123;28;20288;-71
2022/10/15 10:32:42;;;;;;;0.00;0.00;;;;;;;14.18;100.00;100455.72;4998045;28;20030;-71
2022/10/15 10:35:20;;;;;;;0.10;0.10;;;;;;;14.28;100.00;100468.31;4997685;28;20030;-72
2022/10/15 10:37:45;;;;;;;0.10;0.10;;;;;;;14.11;100.00;100451.94;4997523;28;20026;-73
2022/10/15 10:40:27;;;;;;;0.10;0.10;;;;;;;14.24;100.00;100470.47;4994840;28;20605;-71
2022/10/15 10:43:08;;;;;;;0.10;0.10;;;;;;;14.09;100.00;100433.19;4995721;28;20440;-71
2022/10/15 10:45:34;;;;;;;0.10;0.10;;;;;;;14.27;100.00;100464.75;5000950;28;20472;-71
2022/10/15 10:48:16;;;;;;;0.10;0.10;;;;;;;14.03;100.00;100452.69;4996630;28;20145;-72
2022/10/15 10:50:42;;;;;;;0.15;0.15;;;;;;;14.25;100.00;100459.53;4995705;28;20029;-75
2022/10/15 10:53:21;;;;;;;0.10;0.10;;;;;;;14.09;100.00;100449.41;5001384;28;20029;-76
2022/10/15 10:55:47;;;;;;;0.10;0.10;;;;;;;14.25;100.00;100473.03;5016213;28;20026;-72
2022/10/15 10:58:19;;;;;;;0.10;0.10;;;;;;;14.20;100.00;100453.72;5000582;28;20040;-76
2022/10/15 11:00:47;;;;;;;0.00;0.00;;;;;;;14.27;100.00;100463.91;5001003;28;20120;-72
2022/10/15 11:03:24;;;;;;;0.10;0.10;;;;;;;14.25;100.00;100464.06;4999467;28;20440;-72
2022/10/15 11:05:58;;;;;;;0.08;0.08;;;;;;;14.20;100.00;100442.94;5003118;28;20490;-70
2022/10/15 11:08:40;;;;;;;0.10;0.10;;;;;;;14.25;100.00;100434.34;5000031;28;20129;-74
2022/10/15 11:11:13;;;;;;;0.10;0.10;;;;;;;14.35;100.00;100448.66;4996744;28;20064;-72
2022/10/15 11:13:53;;;;;;;0.05;0.05;;;;;;;14.23;100.00;100420.16;4997424;28;20030;-73
2022/10/15 11:16:39;;;;;;;0.00;0.00;;;;;;;14.37;100.00;100449.34;4998056;28;22341;-72
2022/10/15 11:19:13;;;;;;;0.10;0.10;;;;;;;14.50;100.00;100448.09;4998054;28;20037;-71
2022/10/15 11:21:51;;;;;;;0.10;0.10;;;;;;;14.46;100.00;100441.28;4997411;28;20125;-73
2022/10/15 11:24:34;;;;;;;0.05;0.05;;;;;;;14.46;100.00;100436.75;5012532;28;20034;-75
2022/10/15 11:27:50;;;;;;;0.10;0.10;;;;;;;14.38;100.00;100448.34;5009488;28;20682;-71